Time;durP1;ratioP1;P1;durP2;ratioP2;P2;SDS_P1;SDS_P2;PMS_P1;PMS_P2;Temp;Humidity;BMP_temperature;BMP_pressure;BME280_temperature;BME280_humidity;BME280_pressure;Samples;Min_cycle;Max_cycle;Signal;HPM_P1;HPM_P2
2022/12/29 00:00:50;;;;;;;;;;;10.00;89.90;;;;;;5000817;28;20398;-84
2022/12/29 00:03:25;;;;;;;;;;;10.10;89.60;;;;;;4997099;28;19984;-83
2022/12/29 00:05:54;;;;;;;;;;;10.10;89.70;;;;;;5007009;28;19917;-84
2022/12/29 00:08:38;;;;;;;;;;;10.10;89.50;;;;;;5024999;28;19914;-84
2022/12/29 00:11:08;;;;;;;;;;;10.20;89.30;;;;;;5009442;28;20289;-83
2022/12/29 00:16:24;;;;;;;;;;;10.20;88.90;;;;;;5016388;28;19924;-84
2022/12/29 00:18:49;;;;;;;;;;;10.20;88.90;;;;;;5009610;28;19914;-85
2022/12/29 00:35:07;;;;;;;;;;;10.20;89.50;;;;;;5008562;28;19925;-84
2022/12/29 00:45:52;;;;;;;;;;;10.30;89.90;;;;;;5013468;28;19944;-84
2022/12/29 00:51:02;;;;;;;;;;;10.20;90.00;;;;;;5019001;28;19936;-84
2022/12/29 00:53:27;;;;;;;;;;;10.30;90.30;;;;;;5011783;28;20331;-84
2022/12/29 00:55:53;;;;;;;;;;;10.30;90.40;;;;;;5014201;28;19921;-84
2022/12/29 00:58:18;;;;;;;;;;;10.20;90.50;;;;;;5006333;28;20359;-84
2022/12/29 01:00:44;;;;;;;;;;;10.20;90.60;;;;;;5020092;28;19953;-85
2022/12/29 01:03:09;;;;;;;;;;;10.30;90.40;;;;;;5002252;28;19936;-84
2022/12/29 01:05:36;;;;;;;;;;;10.30;90.40;;;;;;5003659;28;19913;-84
2022/12/29 01:08:01;;;;;;;;;;;10.30;90.40;;;;;;5013379;28;19920;-84
2022/12/29 01:10:27;;;;;;;;;;;10.30;90.60;;;;;;5034147;28;19917;-84
2022/12/29 01:12:53;;;;;;;;;;;10.30;90.50;;;;;;5024983;28;19944;-84
2022/12/29 01:15:18;;;;;;;;;;;10.40;90.70;;;;;;5014395;28;20386;-84
2022/12/29 01:17:44;;;;;;;;;;;10.30;90.90;;;;;;5040485;28;19928;-83
2022/12/29 01:20:10;;;;;;;;;;;10.30;91.30;;;;;;5002727;28;19913;-84
2022/12/29 01:22:36;;;;;;;;;;;10.30;91.20;;;;;;5009464;28;19921;-83
2022/12/29 01:25:01;;;;;;;;;;;10.30;91.20;;;;;;5013986;28;19913;-83
2022/12/29 01:27:27;;;;;;;;;;;10.30;91.40;;;;;;5021592;28;19914;-84
2022/12/29 01:29:52;;;;;;;;;;;10.30;91.10;;;;;;5019222;28;19925;-84
2022/12/29 01:32:18;;;;;;;;;;;10.30;91.20;;;;;;4994111;28;19921;-83
2022/12/29 01:34:43;;;;;;;;;;;10.40;91.10;;;;;;5028023;28;19957;-84
2022/12/29 01:37:09;;;;;;;;;;;10.30;91.00;;;;;;5025216;28;19925;-83
2022/12/29 01:39:34;;;;;;;;;;;10.40;91.00;;;;;;5018713;28;19925;-83
2022/12/29 01:42:00;;;;;;;;;;;10.40;90.60;;;;;;4988814;28;19910;-83
2022/12/29 01:44:45;;;;;;;;;;;10.40;90.60;;;;;;5018639;28;20178;-83
2022/12/29 01:47:10;;;;;;;;;;;10.50;90.40;;;;;;5003614;28;19960;-83
2022/12/29 01:49:36;;;;;;;;;;;10.50;90.20;;;;;;5005015;28;20136;-83
2022/12/29 01:52:04;;;;;;;;;;;10.50;90.10;;;;;;5025904;28;19928;-83
2022/12/29 01:54:37;;;;;;;;;;;10.50;90.20;;;;;;5000554;28;19921;-84
2022/12/29 01:57:04;;;;;;;;;;;10.50;90.10;;;;;;5017118;28;19917;-83
2022/12/29 01:59:32;;;;;;;;;;;10.60;90.00;;;;;;5014389;28;20003;-83
2022/12/29 02:01:58;;;;;;;;;;;10.60;89.80;;;;;;5024094;28;20099;-83
2022/12/29 02:04:24;;;;;;;;;;;10.60;89.60;;;;;;5006364;28;19952;-84
2022/12/29 02:06:59;;;;;;;;;;;10.60;89.60;;;;;;5013332;28;19941;-83
2022/12/29 02:09:25;;;;;;;;;;;10.60;89.60;;;;;;5011685;28;19928;-83
2022/12/29 02:11:51;;;;;;;;;;;10.60;89.10;;;;;;5015768;28;19917;-84
2022/12/29 02:14:17;;;;;;;;;;;10.70;89.00;;;;;;5000311;28;19918;-83
2022/12/29 02:16:48;;;;;;;;;;;10.70;88.90;;;;;;4999442;28;19920;-83
2022/12/29 02:19:35;;;;;;;;;;;10.60;88.60;;;;;;5006783;28;20355;-83
2022/12/29 02:22:01;;;;;;;;;;;10.60;88.50;;;;;;4996539;28;20352;-84
2022/12/29 02:24:45;;;;;;;;;;;10.70;88.30;;;;;;5017831;28;19925;-85
2022/12/29 02:27:13;;;;;;;;;;;10.60;88.10;;;;;;5031677;28;19963;-84
2022/12/29 02:29:44;;;;;;;;;;;10.70;88.00;;;;;;5016133;28;20394;-84
2022/12/29 02:32:18;;;;;;;;;;;10.70;87.90;;;;;;4994091;28;19914;-83
2022/12/29 02:35:07;;;;;;;;;;;10.60;87.90;;;;;;5001426;28;19922;-84
2022/12/29 02:37:40;;;;;;;;;;;10.70;87.70;;;;;;4959674;28;22243;-83
2022/12/29 02:40:08;;;;;;;;;;;10.70;87.60;;;;;;4999663;28;19932;-84
2022/12/29 02:42:40;;;;;;;;;;;10.70;87.50;;;;;;5011279;28;19937;-84
2022/12/29 02:45:12;;;;;;;;;;;10.80;87.40;;;;;;5012455;28;19967;-84
2022/12/29 02:47:47;;;;;;;;;;;10.90;87.00;;;;;;5007714;28;19918;-84
2022/12/29 02:50:15;;;;;;;;;;;10.80;86.80;;;;;;5009377;28;19921;-84
2022/12/29 02:52:46;;;;;;;;;;;10.80;86.50;;;;;;5034429;23;19936;-80
2022/12/29 02:55:12;;;;;;;;;;;11.00;86.20;;;;;;5024581;28;20024;-80
2022/12/29 02:57:37;;;;;;;;;;;10.90;85.90;;;;;;5014319;28;19956;-77
2022/12/29 03:00:09;;;;;;;;;;;11.00;85.90;;;;;;5012321;28;19917;-79
2022/12/29 03:02:44;;;;;;;;;;;10.90;85.90;;;;;;5013982;28;20276;-80
2022/12/29 03:05:10;;;;;;;;;;;11.00;85.60;;;;;;5014374;28;19913;-78
2022/12/29 03:07:44;;;;;;;;;;;11.00;85.30;;;;;;5029340;28;20562;-79
2022/12/29 03:10:10;;;;;;;;;;;11.00;85.10;;;;;;5014617;28;19917;-80
2022/12/29 03:16:04;;;;;;;;;;;11.00;84.90;;;;;;5044826;28;19924;-79
2022/12/29 03:18:56;;;;;;;;;;;11.10;84.50;;;;;;5006751;28;19913;-79
2022/12/29 03:22:26;;;;;;;;;;;11.10;84.00;;;;;;5036420;28;19918;-78
2022/12/29 03:24:17;;;;;;;;;;;11.10;83.70;;;;;;5033297;28;19983;-79
2022/12/29 03:26:43;;;;;;;;;;;11.10;83.90;;;;;;5041153;28;19931;-79
2022/12/29 03:29:09;;;;;;;;;;;11.20;83.70;;;;;;5017455;28;20385;-79
2022/12/29 03:31:36;;;;;;;;;;;11.20;83.60;;;;;;5037569;28;19971;-78
2022/12/29 03:34:02;;;;;;;;;;;11.10;83.70;;;;;;5035084;28;19917;-79
2022/12/29 03:36:32;;;;;;;;;;;11.20;83.30;;;;;;5019756;28;19924;-79
2022/12/29 03:39:01;;;;;;;;;;;11.10;83.10;;;;;;5009016;28;19921;-80
2022/12/29 03:41:29;;;;;;;;;;;11.30;82.90;;;;;;5036797;28;19923;-80
2022/12/29 03:43:55;;;;;;;;;;;11.30;83.20;;;;;;5011751;28;19921;-79
2022/12/29 03:46:20;;;;;;;;;;;11.20;83.20;;;;;;5012505;28;19913;-79
2022/12/29 03:48:46;;;;;;;;;;;11.20;83.10;;;;;;5001706;28;19949;-79
2022/12/29 03:51:11;;;;;;;;;;;11.20;83.30;;;;;;5032110;28;19925;-78
2022/12/29 03:53:37;;;;;;;;;;;11.20;83.60;;;;;;4963564;28;1805019;-80
2022/12/29 03:56:02;;;;;;;;;;;11.20;83.90;;;;;;5025444;28;19971;-80
2022/12/29 03:58:28;;;;;;;;;;;11.20;84.20;;;;;;5015406;28;19928;-78
2022/12/29 04:00:53;;;;;;;;;;;11.10;85.30;;;;;;5007244;28;20323;-79
2022/12/29 04:03:18;;;;;;;;;;;11.10;85.60;;;;;;5010452;28;19963;-79
2022/12/29 04:05:44;;;;;;;;;;;11.00;86.20;;;;;;5011066;28;19939;-79
2022/12/29 04:08:09;;;;;;;;;;;10.90;86.70;;;;;;5009900;28;20372;-78
2022/12/29 04:10:35;;;;;;;;;;;10.80;87.00;;;;;;5030015;28;19947;-78
2022/12/29 04:13:00;;;;;;;;;;;10.80;87.10;;;;;;5028685;28;20031;-77
2022/12/29 04:15:26;;;;;;;;;;;10.80;87.50;;;;;;5004044;28;19921;-78
2022/12/29 04:17:51;;;;;;;;;;;10.70;87.70;;;;;;5030868;28;19920;-78
2022/12/29 04:23:02;;;;;;;;;;;10.60;88.20;;;;;;5028733;28;19944;-78
2022/12/29 04:25:27;;;;;;;;;;;10.60;88.30;;;;;;5013874;28;19920;-78
2022/12/29 04:27:53;;;;;;;;;;;10.60;88.50;;;;;;5026848;28;20436;-77
2022/12/29 04:30:18;;;;;;;;;;;10.50;88.20;;;;;;5034734;28;19921;-78
2022/12/29 04:32:44;;;;;;;;;;;10.60;88.30;;;;;;5025998;28;20004;-77
2022/12/29 04:35:09;;;;;;;;;;;10.60;88.10;;;;;;5023350;28;20003;-78
2022/12/29 04:37:34;;;;;;;;;;;10.70;87.70;;;;;;5030953;28;20361;-77
2022/12/29 04:40:00;;;;;;;;;;;10.80;87.30;;;;;;5005956;28;19952;-78
2022/12/29 04:42:25;;;;;;;;;;;10.70;87.40;;;;;;5003887;28;19925;-78
2022/12/29 04:44:51;;;;;;;;;;;10.80;86.70;;;;;;5018369;28;19917;-78
2022/12/29 04:47:16;;;;;;;;;;;10.90;86.10;;;;;;5020464;28;19913;-77
2022/12/29 04:49:42;;;;;;;;;;;11.00;86.20;;;;;;5033586;28;19913;-78
2022/12/29 04:52:08;;;;;;;;;;;11.10;85.40;;;;;;5042468;28;19978;-77
2022/12/29 04:54:33;;;;;;;;;;;11.00;85.10;;;;;;5014604;28;20300;-77
2022/12/29 04:56:59;;;;;;;;;;;11.10;84.90;;;;;;5042274;28;19917;-77
2022/12/29 04:59:24;;;;;;;;;;;11.10;84.50;;;;;;5039013;28;19918;-78
2022/12/29 05:01:50;;;;;;;;;;;11.10;84.30;;;;;;5011025;28;19914;-77
2022/12/29 05:04:15;;;;;;;;;;;11.30;83.20;;;;;;5031306;28;19932;-78
2022/12/29 05:06:41;;;;;;;;;;;11.30;82.60;;;;;;5036448;28;19948;-77
2022/12/29 05:09:06;;;;;;;;;;;11.40;82.30;;;;;;5022617;28;19956;-77
2022/12/29 05:11:31;;;;;;;;;;;11.50;81.90;;;;;;5007408;28;19928;-81
2022/12/29 05:13:57;;;;;;;;;;;11.50;81.50;;;;;;5030659;28;19939;-80
2022/12/29 05:16:22;;;;;;;;;;;11.50;81.20;;;;;;5038100;28;19921;-80
2022/12/29 05:18:48;;;;;;;;;;;11.60;81.30;;;;;;5019226;28;20292;-79
2022/12/29 05:21:13;;;;;;;;;;;11.60;81.50;;;;;;5040963;28;19917;-80
2022/12/29 05:23:39;;;;;;;;;;;11.60;81.60;;;;;;5035135;28;20070;-79
2022/12/29 05:26:04;;;;;;;;;;;11.50;81.50;;;;;;5024799;28;21194;-80
2022/12/29 05:28:30;;;;;;;;;;;11.60;81.20;;;;;;5038185;28;19915;-80
2022/12/29 05:30:55;;;;;;;;;;;11.60;81.20;;;;;;5015432;28;19920;-79
2022/12/29 05:33:20;;;;;;;;;;;11.60;81.10;;;;;;5042543;28;19967;-79
2022/12/29 05:35:46;;;;;;;;;;;11.60;80.60;;;;;;5015527;28;19928;-78
2022/12/29 05:38:11;;;;;;;;;;;11.60;80.50;;;;;;5029891;28;19952;-79
2022/12/29 05:40:37;;;;;;;;;;;11.60;80.30;;;;;;5054710;28;19909;-78
2022/12/29 05:43:02;;;;;;;;;;;11.60;80.00;;;;;;5013904;28;19917;-80
2022/12/29 05:45:28;;;;;;;;;;;11.60;80.40;;;;;;5011253;28;19965;-80
2022/12/29 05:47:53;;;;;;;;;;;11.60;80.50;;;;;;5028250;28;19913;-79
2022/12/29 05:50:19;;;;;;;;;;;11.60;79.90;;;;;;5044667;28;19992;-81
2022/12/29 05:52:44;;;;;;;;;;;11.70;80.20;;;;;;5023347;28;19975;-79
2022/12/29 05:55:10;;;;;;;;;;;11.60;80.60;;;;;;5028025;28;19921;-81
2022/12/29 05:57:35;;;;;;;;;;;11.60;80.60;;;;;;5010644;28;19914;-79
2022/12/29 06:00:01;;;;;;;;;;;11.60;80.30;;;;;;5042783;28;19917;-80
2022/12/29 06:02:27;;;;;;;;;;;11.60;80.40;;;;;;5028059;28;20013;-78
2022/12/29 06:04:52;;;;;;;;;;;11.60;80.90;;;;;;5027644;28;19913;-78
2022/12/29 06:07:17;;;;;;;;;;;11.60;80.80;;;;;;5044666;28;20274;-78
2022/12/29 06:09:43;;;;;;;;;;;11.50;81.40;;;;;;5020521;28;19951;-78
2022/12/29 06:12:08;;;;;;;;;;;11.50;80.80;;;;;;5034628;28;19960;-77
2022/12/29 06:14:34;;;;;;;;;;;11.60;80.80;;;;;;5015717;28;19925;-77
2022/12/29 06:16:59;;;;;;;;;;;11.60;81.10;;;;;;5020638;28;20609;-78
2022/12/29 06:19:25;;;;;;;;;;;11.50;80.80;;;;;;5017294;28;19944;-78
2022/12/29 06:21:52;;;;;;;;;;;11.50;81.30;;;;;;5026759;28;19924;-76
2022/12/29 06:24:17;;;;;;;;;;;11.50;80.80;;;;;;5009839;28;19917;-77
2022/12/29 06:26:43;;;;;;;;;;;11.60;80.90;;;;;;5013304;28;19917;-76
2022/12/29 06:29:08;;;;;;;;;;;11.50;80.60;;;;;;5025353;28;20434;-76
2022/12/29 06:31:34;;;;;;;;;;;11.60;80.20;;;;;;5026615;28;20022;-76
2022/12/29 06:33:59;;;;;;;;;;;11.60;80.10;;;;;;5026086;28;19914;-77
2022/12/29 06:36:25;;;;;;;;;;;11.50;80.20;;;;;;5011845;28;19928;-76
2022/12/29 06:38:52;;;;;;;;;;;11.40;80.40;;;;;;5033793;28;19943;-76
2022/12/29 06:41:18;;;;;;;;;;;11.40;80.30;;;;;;5029411;28;19917;-76
2022/12/29 06:43:43;;;;;;;;;;;11.50;80.10;;;;;;5006769;28;19913;-77
2022/12/29 06:46:09;;;;;;;;;;;11.50;79.50;;;;;;5032495;28;19962;-78
2022/12/29 06:48:34;;;;;;;;;;;11.50;79.30;;;;;;5036664;28;20046;-80
2022/12/29 06:51:00;;;;;;;;;;;11.50;79.00;;;;;;5037050;28;20387;-80
2022/12/29 06:53:26;;;;;;;;;;;11.50;79.50;;;;;;5028027;28;19918;-78
2022/12/29 06:55:52;;;;;;;;;;;11.40;80.00;;;;;;5031365;28;19924;-77
2022/12/29 06:58:17;;;;;;;;;;;11.40;79.90;;;;;;5023225;28;20089;-79
2022/12/29 07:00:43;;;;;;;;;;;11.40;79.60;;;;;;5024540;28;20348;-78
2022/12/29 07:03:08;;;;;;;;;;;11.50;79.50;;;;;;5028622;28;19945;-78
2022/12/29 07:05:33;;;;;;;;;;;11.50;79.60;;;;;;5025959;28;19917;-78
2022/12/29 07:07:59;;;;;;;;;;;11.50;79.50;;;;;;5026249;28;19914;-79
2022/12/29 07:10:25;;;;;;;;;;;11.50;78.90;;;;;;5023580;28;19967;-78
2022/12/29 07:12:51;;;;;;;;;;;11.50;78.80;;;;;;5026354;28;19924;-80
2022/12/29 07:15:16;;;;;;;;;;;11.50;79.10;;;;;;5014272;28;19928;-78
2022/12/29 07:17:42;;;;;;;;;;;11.50;79.30;;;;;;5030197;28;19913;-79
2022/12/29 07:20:08;;;;;;;;;;;11.50;79.30;;;;;;5045864;28;19974;-79
2022/12/29 07:22:33;;;;;;;;;;;11.40;79.20;;;;;;5030529;28;19916;-80
2022/12/29 07:24:59;;;;;;;;;;;11.40;79.30;;;;;;5022231;28;19918;-78
2022/12/29 07:27:24;;;;;;;;;;;11.30;79.50;;;;;;5025636;28;19920;-78
2022/12/29 07:29:50;;;;;;;;;;;11.30;80.30;;;;;;5012781;28;19917;-79
2022/12/29 07:32:15;;;;;;;;;;;11.10;81.30;;;;;;5027717;28;19981;-79
2022/12/29 07:34:41;;;;;;;;;;;11.10;81.50;;;;;;5030314;28;19944;-79
2022/12/29 07:37:06;;;;;;;;;;;11.10;81.80;;;;;;5031399;28;19920;-81
2022/12/29 07:39:32;;;;;;;;;;;11.00;81.90;;;;;;5031877;28;20347;-77
2022/12/29 07:41:57;;;;;;;;;;;11.00;81.90;;;;;;5034217;28;19914;-78
2022/12/29 07:44:22;;;;;;;;;;;11.00;81.30;;;;;;5029358;28;19913;-81
2022/12/29 07:46:48;;;;;;;;;;;11.00;81.10;;;;;;5008418;28;19917;-76
2022/12/29 07:49:13;;;;;;;;;;;11.00;79.80;;;;;;5003581;28;19917;-77
2022/12/29 07:51:39;;;;;;;;;;;11.10;79.20;;;;;;5044750;28;19913;-76
2022/12/29 07:54:04;;;;;;;;;;;11.10;78.30;;;;;;5029096;28;19921;-77
2022/12/29 07:56:30;;;;;;;;;;;11.20;78.20;;;;;;5022362;28;20560;-76
2022/12/29 07:58:55;;;;;;;;;;;11.10;78.10;;;;;;5023619;28;19914;-77
2022/12/29 08:01:23;;;;;;;;;;;11.10;77.10;;;;;;5033408;28;19913;-77
2022/12/29 08:03:48;;;;;;;;;;;11.10;77.10;;;;;;5020638;28;19920;-77
2022/12/29 08:06:14;;;;;;;;;;;11.20;76.90;;;;;;5032800;28;19917;-77
2022/12/29 08:08:40;;;;;;;;;;;11.10;77.00;;;;;;5006766;28;19955;-76
2022/12/29 08:11:05;;;;;;;;;;;11.10;76.80;;;;;;5028525;28;19952;-77
2022/12/29 08:13:31;;;;;;;;;;;11.10;77.00;;;;;;5005557;28;19917;-77
2022/12/29 08:15:57;;;;;;;;;;;11.10;76.90;;;;;;5025959;28;19917;-77
2022/12/29 08:18:23;;;;;;;;;;;11.10;77.40;;;;;;5022035;28;19943;-77
2022/12/29 08:20:48;;;;;;;;;;;11.20;75.90;;;;;;5027709;28;19921;-76
2022/12/29 08:23:14;;;;;;;;;;;11.10;75.90;;;;;;5030553;28;19917;-78
2022/12/29 08:25:39;;;;;;;;;;;11.10;76.00;;;;;;5033477;28;19995;-78
2022/12/29 08:28:05;;;;;;;;;;;11.10;76.00;;;;;;5007284;28;19949;-75
2022/12/29 08:30:30;;;;;;;;;;;11.20;75.70;;;;;;5036194;28;19913;-75
2022/12/29 08:32:55;;;;;;;;;;;11.20;75.80;;;;;;5024928;28;19967;-77
2022/12/29 08:35:21;;;;;;;;;;;11.10;76.30;;;;;;5030686;28;20432;-78
2022/12/29 08:37:46;;;;;;;;;;;11.10;76.30;;;;;;5029378;28;21573;-77
2022/12/29 08:40:12;;;;;;;;;;;11.10;76.10;;;;;;5028012;28;19917;-78
2022/12/29 08:42:38;;;;;;;;;;;11.00;76.10;;;;;;5029617;28;19959;-76
2022/12/29 08:45:03;;;;;;;;;;;11.00;76.10;;;;;;5020537;28;20285;-76
2022/12/29 08:47:29;;;;;;;;;;;11.00;76.30;;;;;;5032416;28;19966;-78
2022/12/29 08:49:54;;;;;;;;;;;11.10;76.20;;;;;;5029866;28;19921;-77
2022/12/29 08:52:20;;;;;;;;;;;11.10;75.80;;;;;;5022544;28;19913;-76
2022/12/29 08:54:45;;;;;;;;;;;11.20;75.90;;;;;;5049882;23;20019;-86
2022/12/29 08:57:11;;;;;;;;;;;11.20;75.90;;;;;;5032315;28;19913;-88
2022/12/29 08:59:36;;;;;;;;;;;11.30;75.70;;;;;;5064573;28;20030;-89
2022/12/29 09:02:08;;;;;;;;;;;11.20;75.90;;;;;;5026956;28;19948;-87
2022/12/29 09:04:33;;;;;;;;;;;11.30;75.20;;;;;;5035608;28;19920;-87
2022/12/29 09:06:59;;;;;;;;;;;11.30;75.50;;;;;;5044662;28;20370;-88
2022/12/29 09:09:28;;;;;;;;;;;11.30;76.30;;;;;;5033604;28;19932;-88
2022/12/29 09:11:56;;;;;;;;;;;11.20;76.70;;;;;;5033155;28;20295;-89
2022/12/29 09:14:22;;;;;;;;;;;11.20;76.10;;;;;;5039741;28;20429;-90
2022/12/29 09:19:40;;;;;;;;;;;11.10;77.40;;;;;;5063825;28;19971;-84
2022/12/29 09:22:06;;;;;;;;;;;11.00;77.70;;;;;;5038112;28;19979;-87
2022/12/29 09:24:31;;;;;;;;;;;10.90;78.00;;;;;;5037727;28;20362;-89
2022/12/29 09:27:19;;;;;;;;;;;10.80;78.50;;;;;;5065975;28;19916;-92
2022/12/29 09:29:45;;;;;;;;;;;10.70;78.90;;;;;;5044219;28;20004;-87
2022/12/29 09:32:19;;;;;;;;;;;10.70;78.70;;;;;;5043733;28;19920;-88
2022/12/29 09:34:44;;;;;;;;;;;10.70;78.30;;;;;;5026206;23;19930;-80
2022/12/29 09:37:10;;;;;;;;;;;10.80;77.80;;;;;;5020936;28;20085;-81
2022/12/29 09:39:36;;;;;;;;;;;10.80;77.10;;;;;;5011171;28;19928;-80
2022/12/29 09:42:11;;;;;;;;;;;10.90;76.60;;;;;;4995229;28;19941;-80
2022/12/29 09:44:56;;;;;;;;;;;10.90;76.30;;;;;;4987040;28;19921;-81
2022/12/29 09:47:23;;;;;;;;;;;11.00;76.20;;;;;;4994237;28;19921;-82
2022/12/29 09:49:49;;;;;;;;;;;11.00;75.80;;;;;;5019939;28;19971;-81
2022/12/29 09:52:20;;;;;;;;;;;11.10;75.60;;;;;;5013768;28;19926;-80
2022/12/29 09:54:52;;;;;;;;;;;11.10;75.10;;;;;;4996964;28;19932;-79
2022/12/29 09:57:29;;;;;;;;;;;11.20;75.40;;;;;;4977321;28;21108;-79
2022/12/29 10:00:03;;;;;;;;;;;11.30;75.20;;;;;;5006333;28;19921;-79
2022/12/29 10:02:40;;;;;;;;;;;11.20;74.90;;;;;;4987149;28;20377;-76
2022/12/29 10:05:14;;;;;;;;;;;11.20;75.20;;;;;;4988546;28;19922;-77
2022/12/29 10:08:04;;;;;;;;;;;11.20;75.40;;;;;;5012548;28;20020;-77
2022/12/29 10:10:41;;;;;;;;;;;11.20;75.80;;;;;;4999494;28;19983;-78
2022/12/29 10:13:21;;;;;;;;;;;11.30;75.60;;;;;;5020274;28;19918;-77
2022/12/29 10:15:56;;;;;;;;;;;11.30;75.10;;;;;;5000656;28;19924;-77
2022/12/29 10:18:28;;;;;;;;;;;11.30;74.80;;;;;;4983319;28;20333;-77
2022/12/29 10:21:12;;;;;;;;;;;11.30;74.50;;;;;;5005415;28;19917;-78
2022/12/29 10:23:54;;;;;;;;;;;11.30;75.20;;;;;;5003423;28;19922;-78
2022/12/29 10:26:25;;;;;;;;;;;11.30;74.20;;;;;;5008939;28;19917;-78
2022/12/29 10:28:57;;;;;;;;;;;11.40;73.70;;;;;;5004405;28;19914;-79
2022/12/29 10:31:33;;;;;;;;;;;11.50;72.60;;;;;;5003733;28;20028;-78
2022/12/29 10:34:00;;;;;;;;;;;11.40;72.90;;;;;;4988406;28;19928;-78
2022/12/29 10:36:33;;;;;;;;;;;11.40;72.20;;;;;;5011211;28;19923;-78
2022/12/29 10:39:19;;;;;;;;;;;11.40;72.30;;;;;;5000872;28;19957;-77
2022/12/29 10:41:47;;;;;;;;;;;11.40;71.80;;;;;;4990726;28;19924;-77
2022/12/29 10:44:15;;;;;;;;;;;11.40;71.50;;;;;;4990114;28;19917;-78
2022/12/29 10:46:41;;;;;;;;;;;11.40;71.50;;;;;;5010074;28;19917;-79
2022/12/29 10:49:13;;;;;;;;;;;11.50;70.60;;;;;;5002378;28;19921;-80
2022/12/29 10:51:42;;;;;;;;;;;11.50;70.90;;;;;;4991036;28;19981;-79
2022/12/29 10:54:13;;;;;;;;;;;11.50;70.70;;;;;;5010185;28;19941;-78
2022/12/29 10:56:40;;;;;;;;;;;11.50;70.10;;;;;;5001878;28;21656;-78
2022/12/29 10:59:27;;;;;;;;;;;11.60;70.20;;;;;;4988032;28;19918;-79
2022/12/29 11:01:53;;;;;;;;;;;11.50;69.90;;;;;;5002271;28;20027;-79
2022/12/29 11:04:27;;;;;;;;;;;11.50;70.20;;;;;;5009864;28;20064;-78
2022/12/29 11:06:53;;;;;;;;;;;11.50;70.30;;;;;;4986640;28;19979;-79
2022/12/29 11:09:25;;;;;;;;;;;11.50;69.70;;;;;;5000217;28;20397;-78
2022/12/29 11:11:50;;;;;;;;;;;11.50;70.30;;;;;;5007912;28;19914;-78
2022/12/29 11:14:20;;;;;;;;;;;11.50;69.90;;;;;;5004056;28;19983;-81
2022/12/29 11:16:56;;;;;;;;;;;11.50;70.30;;;;;;5020842;28;19914;-79
2022/12/29 11:19:23;;;;;;;;;;;11.50;70.40;;;;;;4993775;28;19959;-81
2022/12/29 11:21:49;;;;;;;;;;;11.50;70.20;;;;;;5004971;28;19964;-80
2022/12/29 11:24:20;;;;;;;;;;;11.40;70.50;;;;;;4999685;28;19957;-78
2022/12/29 11:26:45;;;;;;;;;;;11.40;70.70;;;;;;5002332;28;20995;-79
2022/12/29 11:29:17;;;;;;;;;;;11.50;70.10;;;;;;5008765;28;19917;-80
2022/12/29 11:31:49;;;;;;;;;;;11.50;70.00;;;;;;5012557;28;19913;-79
2022/12/29 11:34:25;;;;;;;;;;;11.50;70.00;;;;;;5007636;28;20416;-81
2022/12/29 11:36:53;;;;;;;;;;;11.50;69.40;;;;;;5003705;28;19913;-80
2022/12/29 11:39:25;;;;;;;;;;;11.50;70.20;;;;;;4987371;28;20374;-82
2022/12/29 11:41:52;;;;;;;;;;;11.50;70.50;;;;;;5002098;28;19998;-81
2022/12/29 11:44:17;;;;;;;;;;;11.50;70.30;;;;;;5006295;28;20403;-81
2022/12/29 11:46:46;;;;;;;;;;;11.40;70.50;;;;;;5018198;28;19913;-82
2022/12/29 11:49:13;;;;;;;;;;;11.40;70.50;;;;;;4994752;28;20004;-80
2022/12/29 11:51:43;;;;;;;;;;;11.40;69.30;;;;;;5020067;28;20259;-81
2022/12/29 11:54:10;;;;;;;;;;;11.40;69.30;;;;;;5004601;28;19954;-79
2022/12/29 11:56:41;;;;;;;;;;;11.40;69.50;;;;;;5012651;28;19924;-79
2022/12/29 11:59:24;;;;;;;;;;;11.40;69.90;;;;;;5008468;28;19917;-78
2022/12/29 12:01:50;;;;;;;;;;;11.40;70.00;;;;;;5006277;28;19972;-78
2022/12/29 12:04:21;;;;;;;;;;;11.40;69.80;;;;;;5008944;28;19913;-77
2022/12/29 12:06:59;;;;;;;;;;;11.40;69.30;;;;;;5017849;28;19913;-79
2022/12/29 12:09:38;;;;;;;;;;;11.50;69.10;;;;;;4999955;28;20435;-79
2022/12/29 12:12:05;;;;;;;;;;;11.50;69.30;;;;;;5004915;28;19918;-78
2022/12/29 12:14:48;;;;;;;;;;;11.50;68.90;;;;;;4999841;28;19952;-80
2022/12/29 12:17:18;;;;;;;;;;;11.60;68.70;;;;;;5013727;28;19941;-81
2022/12/29 12:19:46;;;;;;;;;;;11.50;69.30;;;;;;4991198;28;19936;-79
2022/12/29 12:22:31;;;;;;;;;;;11.50;69.10;;;;;;5007387;28;19925;-77
2022/12/29 12:24:56;;;;;;;;;;;11.50;68.90;;;;;;4996130;28;20804;-78
2022/12/29 12:27:24;;;;;;;;;;;11.50;68.70;;;;;;5019104;28;20369;-80
2022/12/29 12:29:59;;;;;;;;;;;11.50;69.10;;;;;;5012331;28;19913;-79
2022/12/29 12:32:43;;;;;;;;;;;11.50;69.30;;;;;;4990929;28;19928;-76
2022/12/29 12:35:13;;;;;;;;;;;11.60;69.20;;;;;;4984449;28;19917;-79
2022/12/29 12:37:53;;;;;;;;;;;11.60;68.90;;;;;;5006624;28;19939;-80
2022/12/29 12:40:33;;;;;;;;;;;11.60;69.00;;;;;;4989588;28;19929;-81
2022/12/29 12:43:08;;;;;;;;;;;11.60;68.50;;;;;;4991864;28;19968;-79
2022/12/29 12:45:53;;;;;;;;;;;11.60;69.10;;;;;;5014753;28;20017;-79
2022/12/29 12:48:31;;;;;;;;;;;11.50;68.70;;;;;;4994550;28;19971;-78
2022/12/29 12:51:08;;;;;;;;;;;11.50;68.90;;;;;;5027734;28;19920;-77
2022/12/29 12:53:45;;;;;;;;;;;11.50;69.00;;;;;;5000044;28;19917;-80
2022/12/29 12:56:19;;;;;;;;;;;11.40;68.80;;;;;;5001822;28;19952;-79
2022/12/29 12:58:51;;;;;;;;;;;11.40;68.90;;;;;;4998066;28;19917;-79
2022/12/29 13:01:38;;;;;;;;;;;11.30;69.20;;;;;;5008677;28;19921;-80
2022/12/29 13:04:07;;;;;;;;;;;11.30;69.10;;;;;;5003048;28;20479;-80
2022/12/29 13:06:32;;;;;;;;;;;11.40;69.40;;;;;;5010187;28;20358;-80
2022/12/29 13:09:02;;;;;;;;;;;11.30;69.50;;;;;;5003544;28;19993;-79
2022/12/29 13:11:46;;;;;;;;;;;11.30;69.40;;;;;;4997839;28;19913;-79
2022/12/29 13:14:15;;;;;;;;;;;11.30;69.60;;;;;;5007059;28;19917;-79
2022/12/29 13:16:44;;;;;;;;;;;11.30;69.90;;;;;;5017760;28;19918;-79
2022/12/29 13:19:25;;;;;;;;;;;11.30;69.40;;;;;;5007566;28;19918;-76
2022/12/29 13:22:00;;;;;;;;;;;11.30;69.70;;;;;;5011674;28;19940;-80
2022/12/29 13:24:28;;;;;;;;;;;11.30;69.80;;;;;;5015013;28;19924;-77
2022/12/29 13:27:23;;;;;;;;;;;11.30;69.80;;;;;;5021305;28;20004;-79
2022/12/29 13:29:58;;;;;;;;;;;11.30;70.10;;;;;;4971794;28;20408;-77
2022/12/29 13:32:42;;;;;;;;;;;11.30;69.80;;;;;;5014314;28;19921;-77
2022/12/29 13:35:11;;;;;;;;;;;11.30;69.90;;;;;;5018441;28;19925;-80
2022/12/29 13:37:44;;;;;;;;;;;11.30;70.20;;;;;;5012125;28;19929;-77
2022/12/29 13:40:13;;;;;;;;;;;11.20;70.30;;;;;;4994329;28;19977;-78
2022/12/29 13:42:39;;;;;;;;;;;11.20;70.80;;;;;;5012931;28;20324;-78
2022/12/29 13:45:06;;;;;;;;;;;11.20;70.60;;;;;;5021196;28;19943;-78
2022/12/29 13:47:38;;;;;;;;;;;11.20;70.80;;;;;;4991982;28;20265;-80
2022/12/29 13:50:05;;;;;;;;;;;11.20;70.30;;;;;;5015205;28;19913;-78
2022/12/29 13:52:36;;;;;;;;;;;11.20;70.20;;;;;;5006803;28;19917;-76
2022/12/29 13:55:20;;;;;;;;;;;11.10;70.80;;;;;;4995651;28;19925;-76
2022/12/29 13:57:45;;;;;;;;;;;11.10;70.80;;;;;;4998538;28;20277;-77
2022/12/29 14:00:33;;;;;;;;;;;11.10;71.80;;;;;;5002149;28;19918;-77
2022/12/29 14:03:14;;;;;;;;;;;11.00;71.90;;;;;;5005994;28;19913;-77
2022/12/29 14:05:39;;;;;;;;;;;11.00;72.00;;;;;;5011675;28;20020;-79
2022/12/29 14:08:05;;;;;;;;;;;11.00;72.30;;;;;;5006714;28;20385;-76
2022/12/29 14:10:35;;;;;;;;;;;11.00;72.30;;;;;;5005371;28;20281;-78
2022/12/29 14:13:10;;;;;;;;;;;11.00;72.20;;;;;;5018537;28;19921;-79
2022/12/29 14:15:40;;;;;;;;;;;11.00;72.10;;;;;;5003719;28;19917;-78
2022/12/29 14:18:11;;;;;;;;;;;11.00;71.80;;;;;;5014799;28;19918;-77
2022/12/29 14:20:38;;;;;;;;;;;10.90;71.90;;;;;;5016742;28;20375;-78
2022/12/29 14:23:09;;;;;;;;;;;10.90;71.50;;;;;;5011781;28;19959;-76
2022/12/29 14:25:53;;;;;;;;;;;10.90;71.90;;;;;;5001596;28;20004;-77
2022/12/29 14:28:23;;;;;;;;;;;11.00;71.60;;;;;;4990297;28;19952;-78
2022/12/29 14:30:50;;;;;;;;;;;10.90;72.30;;;;;;5017895;28;20012;-79
2022/12/29 14:33:16;;;;;;;;;;;10.90;72.30;;;;;;5005646;28;19949;-77
2022/12/29 14:35:49;;;;;;;;;;;10.80;71.80;;;;;;5018032;28;19917;-77
2022/12/29 14:38:19;;;;;;;;;;;11.00;71.30;;;;;;5017867;28;19959;-78
2022/12/29 14:40:45;;;;;;;;;;;10.90;71.30;;;;;;5015330;28;19917;-76
2022/12/29 14:43:13;;;;;;;;;;;11.00;70.90;;;;;;5004550;28;19965;-78
2022/12/29 14:45:40;;;;;;;;;;;11.00;70.80;;;;;;4990250;28;20387;-77
2022/12/29 14:48:24;;;;;;;;;;;10.90;71.10;;;;;;5011799;28;20309;-77
2022/12/29 14:50:50;;;;;;;;;;;11.00;70.60;;;;;;5005971;28;20291;-79
2022/12/29 14:55:49;;;;;;;;;;;10.90;70.40;;;;;;5026066;28;19929;-78
2022/12/29 14:58:15;;;;;;;;;;;11.00;70.40;;;;;;5028687;28;20432;-79
2022/12/29 15:00:41;;;;;;;;;;;11.00;70.60;;;;;;5003259;28;19959;-80
2022/12/29 15:03:16;;;;;;;;;;;11.00;70.30;;;;;;5020771;28;19997;-79
2022/12/29 15:05:46;;;;;;;;;;;10.90;70.20;;;;;;5021582;28;19920;-79